Time;durP1;ratioP1;P1;durP2;ratioP2;P2;SDS_P1;SDS_P2;PMS_P1;PMS_P2;Temp;Humidity;BMP_temperature;BMP_pressure;BME280_temperature;BME280_humidity;BME280_pressure;Samples;Min_cycle;Max_cycle;Signal;HPM_P1;HPM_P2
2021/12/19 00:00:17;;;;;;;5.83;3.10;;;8.00;99.90;;;;;;5015905;28;20673;-68
2021/12/19 00:10:37;;;;;;;3.17;2.30;;;7.90;99.90;;;;;;5015150;28;20182;-66
2021/12/19 00:13:02;;;;;;;8.67;2.73;;;7.90;99.90;;;;;;5014887;28;20558;-67
2021/12/19 00:15:28;;;;;;;10.67;2.90;;;8.00;99.90;;;;;;5015157;28;20180;-68
2021/12/19 00:17:54;;;;;;;5.30;2.43;;;7.90;99.90;;;;;;5014448;28;20201;-67
2021/12/19 00:20:20;;;;;;;4.60;2.40;;;7.90;99.90;;;;;;5015258;28;20593;-66
2021/12/19 00:22:45;;;;;;;3.70;2.70;;;8.00;99.90;;;;;;5015319;28;20236;-67
2021/12/19 00:25:11;;;;;;;3.93;2.63;;;8.00;99.90;;;;;;5014349;28;20154;-67
2021/12/19 00:27:37;;;;;;;3.90;2.67;;;8.00;99.90;;;;;;5014847;28;20221;-65
2021/12/19 00:30:03;;;;;;;10.60;2.33;;;7.90;99.90;;;;;;5014330;28;20166;-66
2021/12/19 00:32:29;;;;;;;6.53;2.93;;;7.90;99.90;;;;;;5013915;28;20247;-67
2021/12/19 00:34:55;;;;;;;4.83;2.93;;;8.00;99.90;;;;;;5014439;28;20169;-66
2021/12/19 00:37:22;;;;;;;4.53;2.57;;;8.00;99.90;;;;;;5014270;28;20237;-67
2021/12/19 00:39:48;;;;;;;4.20;2.80;;;7.90;99.90;;;;;;5014505;28;20166;-68
2021/12/19 00:42:25;;;;;;;4.67;2.83;;;8.00;99.90;;;;;;5014915;28;20175;-68
2021/12/19 00:44:52;;;;;;;6.43;3.10;;;8.00;99.90;;;;;;5014566;28;20180;-69
2021/12/19 00:47:18;;;;;;;6.10;2.90;;;8.00;99.90;;;;;;5014800;28;20189;-69
2021/12/19 00:49:43;;;;;;;7.70;2.83;;;8.00;99.90;;;;;;5014200;28;20259;-68
2021/12/19 00:52:09;;;;;;;4.80;3.00;;;8.00;99.90;;;;;;5015140;28;20184;-68
2021/12/19 00:54:35;;;;;;;4.10;2.73;;;7.90;99.90;;;;;;5014251;28;20606;-66
2021/12/19 00:57:00;;;;;;;4.07;3.23;;;7.90;99.90;;;;;;5014745;28;20197;-67
2021/12/19 00:59:26;;;;;;;7.37;3.03;;;7.90;99.90;;;;;;5014351;28;20168;-67
2021/12/19 01:01:52;;;;;;;3.17;2.80;;;7.90;99.90;;;;;;5014052;28;20248;-67
2021/12/19 01:04:19;;;;;;;4.90;3.30;;;7.90;99.90;;;;;;5014817;28;20167;-67
2021/12/19 01:06:45;;;;;;;11.67;3.27;;;8.00;99.90;;;;;;5014282;28;20639;-67
2021/12/19 01:09:12;;;;;;;5.00;3.13;;;7.90;99.90;;;;;;5015627;28;20170;-67
2021/12/19 01:11:38;;;;;;;8.17;2.93;;;7.90;99.90;;;;;;5016461;28;20227;-67
2021/12/19 01:14:05;;;;;;;5.87;3.17;;;7.90;99.90;;;;;;5014151;28;20165;-67
2021/12/19 01:16:31;;;;;;;6.30;2.50;;;7.90;99.90;;;;;;5014162;28;20198;-69
2021/12/19 01:18:56;;;;;;;6.77;2.97;;;7.90;99.90;;;;;;5014353;28;20199;-68
2021/12/19 01:21:22;;;;;;;10.07;3.47;;;7.90;99.90;;;;;;5013919;28;20672;-67
2021/12/19 01:23:48;;;;;;;9.57;3.80;;;7.90;99.90;;;;;;5015743;28;20229;-66
2021/12/19 01:26:14;;;;;;;7.27;3.37;;;7.90;99.90;;;;;;5014403;28;20173;-67
2021/12/19 01:28:42;;;;;;;4.57;3.30;;;7.90;99.90;;;;;;5014235;28;20292;-67
2021/12/19 01:31:09;;;;;;;7.83;3.63;;;7.90;99.90;;;;;;5013854;28;20601;-66
2021/12/19 01:33:36;;;;;;;6.23;2.93;;;7.90;99.90;;;;;;5013847;28;20227;-67
2021/12/19 01:36:01;;;;;;;8.37;3.80;;;7.90;99.90;;;;;;5013454;28;20200;-67
2021/12/19 01:38:27;;;;;;;5.60;2.77;;;7.90;99.90;;;;;;5013224;28;20226;-68
2021/12/19 01:40:53;;;;;;;4.97;2.90;;;7.90;99.90;;;;;;4995641;28;20182;-67
2021/12/19 01:43:25;;;;;;;7.40;3.30;;;7.80;99.90;;;;;;5013514;28;20177;-68
2021/12/19 01:45:52;;;;;;;5.20;3.00;;;7.80;99.90;;;;;;5013501;28;20161;-68
2021/12/19 01:48:20;;;;;;;6.30;3.13;;;7.90;99.90;;;;;;5013537;28;20172;-67
2021/12/19 01:50:46;;;;;;;9.13;3.10;;;7.90;99.90;;;;;;5017190;28;20241;-67
2021/12/19 01:53:12;;;;;;;6.27;3.30;;;7.90;99.90;;;;;;5017300;28;20664;-68
2021/12/19 01:55:40;;;;;;;4.63;3.20;;;7.80;99.90;;;;;;5017529;28;20259;-70
2021/12/19 01:58:07;;;;;;;6.90;3.30;;;7.80;99.90;;;;;;5017646;28;20687;-67
2021/12/19 02:00:36;;;;;;;5.03;3.43;;;7.90;99.90;;;;;;5017293;28;20266;-66
2021/12/19 02:03:02;;;;;;;6.23;3.57;;;7.80;99.90;;;;;;5017625;28;20498;-67
2021/12/19 02:05:29;;;;;;;4.83;3.83;;;7.90;99.90;;;;;;5016986;28;20196;-68
2021/12/19 02:07:56;;;;;;;10.90;3.37;;;7.90;99.90;;;;;;5017214;28;20181;-67
2021/12/19 02:10:25;;;;;;;6.27;4.03;;;7.80;99.90;;;;;;5017440;28;20165;-70
2021/12/19 02:12:53;;;;;;;6.87;3.87;;;7.80;99.90;;;;;;5016903;28;20202;-69
2021/12/19 02:15:21;;;;;;;7.33;4.87;;;7.80;99.90;;;;;;5017358;28;20259;-69
2021/12/19 02:17:48;;;;;;;9.63;4.03;;;7.80;99.90;;;;;;5017273;28;20207;-69
2021/12/19 02:20:15;;;;;;;6.80;4.50;;;7.90;99.90;;;;;;5016554;28;20181;-69
2021/12/19 02:22:42;;;;;;;7.50;4.37;;;7.80;99.90;;;;;;5017061;28;20695;-66
2021/12/19 02:25:09;;;;;;;5.80;4.17;;;7.80;99.90;;;;;;5016811;28;20204;-68
2021/12/19 02:27:35;;;;;;;8.57;4.83;;;7.80;99.90;;;;;;5016811;28;20183;-70
2021/12/19 02:30:01;;;;;;;8.17;5.00;;;7.70;99.90;;;;;;5016515;28;20244;-69
2021/12/19 02:32:29;;;;;;;6.53;4.33;;;7.80;99.90;;;;;;5017056;28;20251;-67
2021/12/19 02:34:57;;;;;;;8.67;4.43;;;7.80;99.90;;;;;;5016751;28;20172;-68
2021/12/19 02:38:28;;;;;;;7.37;3.77;;;7.80;99.90;;;;;;5018567;28;20206;-70
2021/12/19 02:48:30;;;;;;;5.93;4.43;;;7.80;99.90;;;;;;5016484;28;20217;-68
2021/12/19 02:50:57;;;;;;;7.33;4.50;;;7.80;99.90;;;;;;5016029;28;20224;-67
2021/12/19 02:53:37;;;;;;;6.47;4.30;;;7.80;99.90;;;;;;5016579;28;20204;-68
2021/12/19 02:56:07;;;;;;;7.47;3.93;;;7.70;99.90;;;;;;5016163;28;20163;-67
2021/12/19 02:58:35;;;;;;;6.83;3.93;;;7.70;99.90;;;;;;5015704;28;20226;-67
2021/12/19 03:01:05;;;;;;;6.67;4.40;;;7.70;99.90;;;;;;5015554;28;20176;-68
2021/12/19 03:03:30;;;;;;;7.47;4.10;;;7.70;99.90;;;;;;5015429;28;20166;-68
2021/12/19 03:05:56;;;;;;;7.90;4.10;;;7.70;99.90;;;;;;5015244;28;20172;-67
2021/12/19 03:08:22;;;;;;;9.43;4.33;;;7.70;99.90;;;;;;5016284;28;20589;-67
2021/12/19 03:18:28;;;;;;;5.80;3.33;;;7.60;99.90;;;;;;5015656;28;20202;-69
2021/12/19 03:20:53;;;;;;;8.03;3.93;;;7.60;99.90;;;;;;5016505;28;20482;-70
2021/12/19 03:23:20;;;;;;;6.93;3.90;;;7.70;99.90;;;;;;5016012;28;20314;-68
2021/12/19 03:25:45;;;;;;;4.60;3.23;;;7.60;99.90;;;;;;5015550;28;20524;-68
2021/12/19 03:28:13;;;;;;;6.03;4.13;;;7.60;99.90;;;;;;5016054;28;20168;-68
2021/12/19 03:30:41;;;;;;;4.70;3.60;;;7.70;99.90;;;;;;5024368;28;20570;-70
2021/12/19 03:33:07;;;;;;;5.23;3.53;;;7.60;99.90;;;;;;5025657;28;20236;-69
2021/12/19 03:35:33;;;;;;;6.70;3.30;;;7.60;99.90;;;;;;5025731;28;20244;-67
2021/12/19 03:38:01;;;;;;;7.70;3.60;;;7.60;99.90;;;;;;5020585;28;20206;-66
2021/12/19 03:40:37;;;;;;;4.80;3.20;;;7.60;99.90;;;;;;4998403;28;20222;-66
2021/12/19 03:43:08;;;;;;;4.57;3.30;;;7.60;99.90;;;;;;5015188;28;20163;-67
2021/12/19 03:45:35;;;;;;;5.77;3.37;;;7.60;99.90;;;;;;5015617;28;20169;-66
2021/12/19 03:48:03;;;;;;;5.67;3.13;;;7.60;99.90;;;;;;5015143;28;20168;-67
2021/12/19 03:50:31;;;;;;;10.53;3.63;;;7.50;99.90;;;;;;5015030;28;20181;-68
2021/12/19 03:52:57;;;;;;;7.07;3.10;;;7.60;99.90;;;;;;5015057;28;20556;-68
2021/12/19 03:55:24;;;;;;;7.43;3.27;;;7.60;99.90;;;;;;5015411;28;20175;-66
2021/12/19 03:57:50;;;;;;;6.27;3.30;;;7.50;99.90;;;;;;5014967;28;20204;-68
2021/12/19 04:00:23;;;;;;;5.20;3.23;;;7.60;99.90;;;;;;5014692;28;20470;-67
2021/12/19 04:02:50;;;;;;;3.70;2.93;;;7.50;99.90;;;;;;5015408;28;20256;-69
2021/12/19 04:05:16;;;;;;;5.67;2.80;;;7.50;99.90;;;;;;5015862;28;20161;-66
2021/12/19 04:07:41;;;;;;;3.87;2.60;;;7.50;99.90;;;;;;5016236;28;20318;-68
2021/12/19 04:10:07;;;;;;;3.70;3.23;;;7.50;99.90;;;;;;5014630;28;20603;-67
2021/12/19 04:12:33;;;;;;;6.60;3.23;;;7.50;99.90;;;;;;5013964;28;20189;-68
2021/12/19 04:14:59;;;;;;;5.53;3.33;;;7.50;99.90;;;;;;5014635;28;20169;-69
2021/12/19 04:17:24;;;;;;;5.50;3.43;;;7.60;99.90;;;;;;5014717;28;20641;-66
2021/12/19 04:19:50;;;;;;;7.20;3.60;;;7.60;99.90;;;;;;5014646;28;20497;-67
2021/12/19 04:22:16;;;;;;;5.93;3.70;;;7.60;99.90;;;;;;5014494;28;20634;-68
2021/12/19 04:24:41;;;;;;;6.47;3.43;;;7.60;99.90;;;;;;5014315;28;20168;-68
2021/12/19 04:27:07;;;;;;;5.87;3.80;;;7.50;99.90;;;;;;5015021;28;20173;-68
2021/12/19 04:29:32;;;;;;;6.10;3.90;;;7.50;99.90;;;;;;5014214;28;20200;-66
2021/12/19 04:31:58;;;;;;;6.17;3.77;;;7.60;99.90;;;;;;5014446;28;20163;-67
2021/12/19 04:34:31;;;;;;;4.77;3.03;;;7.60;99.90;;;;;;5070853;28;20602;-68
2021/12/19 04:37:03;;;;;;;8.30;3.53;;;7.60;99.90;;;;;;5070432;28;20603;-66
2021/12/19 04:43:06;;;;;;;4.13;3.07;;;7.60;99.90;;;;;;5070226;28;20216;-68
2021/12/19 04:53:47;;;;;;;4.33;2.87;;;7.60;99.90;;;;;;5070148;28;20250;-68
2021/12/19 04:56:21;;;;;;;8.30;3.30;;;7.50;99.90;;;;;;5070511;28;20199;-66
2021/12/19 05:14:05;;;;;;;7.20;3.77;;;7.50;99.90;;;;;;5069588;28;20171;-68
2021/12/19 05:14:38;;;;;;;9.73;3.43;;;7.50;99.90;;;;;;5069624;28;20200;-67
2021/12/19 05:17:08;;;;;;;4.83;3.33;;;7.50;99.90;;;;;;5069430;28;20610;-68
2021/12/19 05:19:48;;;;;;;6.37;3.57;;;7.40;99.90;;;;;;5070129;28;20173;-67
2021/12/19 05:22:14;;;;;;;6.70;3.00;;;7.50;99.90;;;;;;5069632;28;20198;-68
2021/12/19 05:24:47;;;;;;;4.60;3.43;;;7.50;99.90;;;;;;5068190;28;20175;-68
2021/12/19 05:27:13;;;;;;;4.10;3.13;;;7.40;99.90;;;;;;5069792;28;20169;-68
2021/12/19 05:29:39;;;;;;;5.87;2.50;;;7.50;99.90;;;;;;5069798;28;20155;-66
2021/12/19 05:32:06;;;;;;;4.43;3.17;;;7.40;99.90;;;;;;5070965;28;20172;-67
2021/12/19 05:34:32;;;;;;;3.33;2.77;;;7.40;99.90;;;;;;5070865;28;20169;-68
2021/12/19 05:45:19;;;;;;;5.77;3.93;;;7.40;99.90;;;;;;5057923;28;20230;-67
2021/12/19 05:47:47;;;;;;;5.00;3.00;;;7.40;99.90;;;;;;5056073;28;20165;-66
2021/12/19 05:50:20;;;;;;;8.37;3.43;;;7.40;99.90;;;;;;5055407;28;20161;-66
2021/12/19 05:52:47;;;;;;;3.77;2.73;;;7.40;99.90;;;;;;5056571;28;20212;-69
2021/12/19 05:55:15;;;;;;;7.27;3.13;;;7.40;99.90;;;;;;5056011;28;20169;-68
2021/12/19 05:57:41;;;;;;;10.13;3.67;;;7.40;99.90;;;;;;5056113;28;20184;-68
2021/12/19 06:00:09;;;;;;;4.10;2.93;;;7.40;99.90;;;;;;5055662;28;20196;-68
2021/12/19 06:02:35;;;;;;;6.33;2.53;;;7.40;99.90;;;;;;5055907;28;20179;-68
2021/12/19 06:05:02;;;;;;;4.70;3.40;;;7.30;99.90;;;;;;5055527;28;20169;-68
2021/12/19 06:07:28;;;;;;;6.23;4.07;;;7.30;99.90;;;;;;5055642;28;20165;-66
2021/12/19 06:09:53;;;;;;;4.77;3.27;;;7.40;99.90;;;;;;5056055;28;20158;-67
2021/12/19 06:12:19;;;;;;;4.97;3.73;;;7.30;99.90;;;;;;5055095;28;20256;-66
2021/12/19 06:14:44;;;;;;;5.33;3.40;;;7.30;99.90;;;;;;5054670;28;20342;-67
2021/12/19 06:17:10;;;;;;;8.17;3.77;;;7.20;99.90;;;;;;5055799;28;20192;-67
2021/12/19 06:19:36;;;;;;;4.83;3.27;;;7.20;99.90;;;;;;5055361;28;20615;-66
2021/12/19 06:22:05;;;;;;;4.37;3.30;;;7.20;99.90;;;;;;5055762;28;20282;-67
2021/12/19 06:24:32;;;;;;;5.33;3.57;;;7.30;99.90;;;;;;5055512;28;20468;-66
2021/12/19 06:26:58;;;;;;;4.57;3.63;;;7.30;99.90;;;;;;5056620;28;20597;-70
2021/12/19 06:29:25;;;;;;;5.07;3.47;;;7.30;99.90;;;;;;5061512;28;20374;-65
2021/12/19 06:31:51;;;;;;;7.93;3.57;;;7.30;99.90;;;;;;5060917;28;20162;-67
2021/12/19 06:34:17;;;;;;;5.23;3.50;;;7.20;99.90;;;;;;5060562;28;20224;-67
2021/12/19 06:36:43;;;;;;;5.20;3.67;;;7.20;99.90;;;;;;5057599;28;20183;-67
2021/12/19 06:39:09;;;;;;;6.30;3.50;;;7.20;99.90;;;;;;5055354;28;20163;-65
2021/12/19 06:41:36;;;;;;;4.97;3.70;;;7.20;99.90;;;;;;5054697;28;20165;-66
2021/12/19 06:44:02;;;;;;;11.03;3.97;;;7.20;99.90;;;;;;5054999;28;20162;-66
2021/12/19 06:46:28;;;;;;;13.67;4.13;;;7.20;99.90;;;;;;5054564;28;20161;-67
2021/12/19 06:48:54;;;;;;;8.53;4.77;;;7.20;99.90;;;;;;5055346;28;20172;-68
2021/12/19 06:51:19;;;;;;;6.03;4.73;;;7.10;99.90;;;;;;5054964;28;20252;-68
2021/12/19 06:53:45;;;;;;;6.70;4.07;;;7.20;99.90;;;;;;5054820;28;20206;-68
2021/12/19 06:56:11;;;;;;;5.23;3.67;;;7.10;99.90;;;;;;5053912;28;20161;-67
2021/12/19 06:58:36;;;;;;;4.97;4.27;;;7.10;99.90;;;;;;5055877;28;20493;-69
2021/12/19 07:01:02;;;;;;;6.37;3.80;;;7.10;99.90;;;;;;5056918;28;20207;-69
2021/12/19 07:03:28;;;;;;;8.60;4.63;;;7.10;99.90;;;;;;5054826;28;20173;-67
2021/12/19 07:05:53;;;;;;;6.33;4.40;;;7.10;99.90;;;;;;5054403;28;20173;-68
2021/12/19 07:08:21;;;;;;;8.17;4.07;;;7.10;99.90;;;;;;5053055;28;20211;-67
2021/12/19 07:10:47;;;;;;;8.17;3.80;;;7.10;99.90;;;;;;5054516;28;20240;-67
2021/12/19 07:13:18;;;;;;;9.47;4.03;;;7.10;99.90;;;;;;5054331;28;20192;-67
2021/12/19 07:15:44;;;;;;;7.57;4.50;;;7.00;99.90;;;;;;5054512;28;20255;-68
2021/12/19 07:18:10;;;;;;;5.73;4.73;;;7.00;99.90;;;;;;5054809;28;20196;-67
2021/12/19 07:20:35;;;;;;;8.27;4.57;;;7.10;99.90;;;;;;5054143;28;20161;-67
2021/12/19 07:23:01;;;;;;;7.20;4.97;;;7.00;99.90;;;;;;5054129;28;20173;-68
2021/12/19 07:25:27;;;;;;;7.93;4.83;;;7.00;99.90;;;;;;5054126;28;20160;-67
2021/12/19 07:27:53;;;;;;;7.70;4.77;;;7.00;99.90;;;;;;5054366;28;20510;-68
2021/12/19 07:30:18;;;;;;;8.43;4.10;;;7.00;99.90;;;;;;5054620;28;20248;-70
2021/12/19 07:32:44;;;;;;;7.07;4.00;;;7.00;99.90;;;;;;5054060;28;20228;-67
2021/12/19 07:35:11;;;;;;;11.47;4.73;;;7.00;99.90;;;;;;5054734;28;20169;-65
2021/12/19 07:37:37;;;;;;;10.20;5.70;;;6.90;99.90;;;;;;5054128;28;20225;-64
2021/12/19 07:40:16;;;;;;;6.50;4.57;;;6.90;99.90;;;;;;5054091;28;20173;-67
2021/12/19 07:42:43;;;;;;;9.47;5.53;;;6.80;99.90;;;;;;5053970;28;20612;-66
2021/12/19 07:45:10;;;;;;;8.33;4.70;;;6.80;99.90;;;;;;5053680;28;20602;-66
2021/12/19 07:47:38;;;;;;;9.17;5.43;;;6.70;99.90;;;;;;5054047;28;20255;-68
2021/12/19 07:50:04;;;;;;;8.93;5.97;;;6.80;99.90;;;;;;5053388;28;20176;-67
2021/12/19 07:52:30;;;;;;;7.77;4.70;;;6.80;99.90;;;;;;5051946;28;20212;-70
2021/12/19 07:54:55;;;;;;;5.27;4.10;;;6.80;99.90;;;;;;5053992;28;20153;-67
2021/12/19 07:57:21;;;;;;;8.17;4.33;;;6.70;99.90;;;;;;5054027;28;20161;-69
2021/12/19 07:59:47;;;;;;;6.37;4.57;;;6.80;99.90;;;;;;5053545;28;20182;-67
2021/12/19 08:02:12;;;;;;;9.97;4.40;;;6.80;99.90;;;;;;5052993;28;20164;-68
2021/12/19 08:04:38;;;;;;;6.73;4.37;;;6.80;99.90;;;;;;5053345;28;20584;-67
2021/12/19 08:07:04;;;;;;;7.57;4.33;;;6.70;99.90;;;;;;5053012;28;20170;-65
2021/12/19 08:09:56;;;;;;;8.23;4.30;;;6.80;99.90;;;;;;5053434;28;20632;-69
2021/12/19 08:12:21;;;;;;;8.37;5.23;;;6.80;99.90;;;;;;5053845;28;20594;-68
2021/12/19 08:14:47;;;;;;;7.33;4.67;;;6.80;99.90;;;;;;5053473;28;20167;-69
2021/12/19 08:17:13;;;;;;;8.37;5.73;;;6.80;99.90;;;;;;5053672;28;20172;-68
2021/12/19 08:19:38;;;;;;;8.27;5.70;;;6.80;99.90;;;;;;5053649;28;20174;-66
2021/12/19 08:22:04;;;;;;;9.00;5.77;;;6.70;99.90;;;;;;5054459;28;20175;-66
2021/12/19 08:24:29;;;;;;;7.23;4.43;;;6.70;99.90;;;;;;5055548;28;20165;-67
2021/12/19 08:26:55;;;;;;;7.03;4.63;;;6.80;99.90;;;;;;5062735;28;20241;-66
2021/12/19 08:29:21;;;;;;;8.07;5.47;;;6.80;99.90;;;;;;5055471;28;20218;-66
2021/12/19 08:31:46;;;;;;;7.33;3.77;;;6.70;99.90;;;;;;5054501;28;20244;-66
2021/12/19 08:34:12;;;;;;;7.33;4.73;;;6.80;99.90;;;;;;5058703;28;20228;-69
2021/12/19 08:36:37;;;;;;;10.00;5.83;;;6.80;99.90;;;;;;5059193;28;20193;-67
2021/12/19 08:39:05;;;;;;;6.80;4.73;;;6.80;99.90;;;;;;5059216;28;20252;-66
2021/12/19 08:41:31;;;;;;;9.87;4.17;;;6.80;99.90;;;;;;5058382;28;20156;-67
2021/12/19 08:43:57;;;;;;;7.63;4.43;;;6.80;99.90;;;;;;5060626;28;20248;-68
2021/12/19 08:46:23;;;;;;;7.67;4.57;;;6.80;99.90;;;;;;5056855;28;20214;-68
2021/12/19 08:48:49;;;;;;;8.80;4.83;;;6.80;99.90;;;;;;5053392;28;20205;-67
2021/12/19 08:51:14;;;;;;;5.10;3.90;;;6.80;99.90;;;;;;5053338;28;20221;-69
2021/12/19 08:53:40;;;;;;;7.17;3.97;;;6.80;99.90;;;;;;5053092;28;20196;-67
2021/12/19 08:56:06;;;;;;;6.90;4.30;;;6.80;99.90;;;;;;5053021;28;20584;-69
2021/12/19 08:58:32;;;;;;;6.17;4.40;;;6.80;99.90;;;;;;5053062;28;20162;-67
2021/12/19 09:01:02;;;;;;;6.47;4.73;;;6.80;99.90;;;;;;5053130;28;20198;-70
2021/12/19 09:03:32;;;;;;;6.83;5.00;;;6.80;99.90;;;;;;5053394;28;20211;-64
2021/12/19 09:05:58;;;;;;;7.27;5.30;;;6.90;99.90;;;;;;5053184;28;20614;-68
2021/12/19 09:08:24;;;;;;;7.73;5.33;;;6.90;99.90;;;;;;5053794;28;20164;-68
2021/12/19 09:10:49;;;;;;;7.63;5.17;;;6.90;99.90;;;;;;5052200;28;20653;-67
2021/12/19 09:13:15;;;;;;;9.07;5.23;;;6.90;99.90;;;;;;5052902;28;20531;-68
2021/12/19 09:15:41;;;;;;;8.23;4.60;;;6.90;99.90;;;;;;5052069;28;20166;-68
2021/12/19 09:18:07;;;;;;;5.43;4.20;;;7.00;99.90;;;;;;5053225;28;20515;-66
2021/12/19 09:20:32;;;;;;;7.20;4.20;;;7.00;99.90;;;;;;5054200;28;20642;-69
2021/12/19 09:22:58;;;;;;;4.67;3.63;;;7.00;99.90;;;;;;5056913;28;20180;-67
2021/12/19 09:25:24;;;;;;;8.87;3.57;;;6.90;99.90;;;;;;5056868;28;20249;-65
2021/12/19 09:27:49;;;;;;;6.37;4.10;;;7.00;99.90;;;;;;5057248;28;20167;-66
2021/12/19 09:30:15;;;;;;;5.40;4.07;;;7.00;99.90;;;;;;5056156;28;20294;-67
2021/12/19 09:32:41;;;;;;;4.83;3.83;;;7.00;99.90;;;;;;5056439;28;20232;-67
2021/12/19 09:35:07;;;;;;;6.83;4.50;;;7.00;99.90;;;;;;5056484;28;20587;-68
2021/12/19 09:37:36;;;;;;;6.70;4.67;;;7.00;99.90;;;;;;5056395;28;20237;-69
2021/12/19 09:40:07;;;;;;;5.93;4.30;;;7.00;99.90;;;;;;5056508;28;20170;-67
2021/12/19 09:42:35;;;;;;;7.87;5.13;;;7.00;99.90;;;;;;5055510;28;20550;-66
2021/12/19 09:45:03;;;;;;;5.97;4.23;;;7.00;99.90;;;;;;5055934;28;20653;-68
2021/12/19 09:47:28;;;;;;;8.03;5.00;;;7.00;99.90;;;;;;5055915;28;20189;-66
2021/12/19 09:49:54;;;;;;;4.40;3.33;;;6.90;99.90;;;;;;5056439;28;20504;-67
2021/12/19 09:52:20;;;;;;;10.57;4.40;;;7.00;99.90;;;;;;5060084;28;20178;-65
2021/12/19 09:54:46;;;;;;;6.43;4.43;;;7.00;99.90;;;;;;5058754;28;20157;-67
2021/12/19 09:57:11;;;;;;;6.97;3.93;;;7.00;99.90;;;;;;5055685;28;20169;-67
2021/12/19 09:59:38;;;;;;;7.87;4.87;;;7.00;99.90;;;;;;5056753;28;20245;-68
2021/12/19 10:02:04;;;;;;;6.73;3.67;;;7.10;99.90;;;;;;5056394;28;20154;-69
2021/12/19 10:04:38;;;;;;;7.27;3.60;;;7.00;99.90;;;;;;5056442;28;20237;-68
2021/12/19 10:07:12;;;;;;;6.30;4.27;;;7.10;99.90;;;;;;5055954;28;20162;-68
2021/12/19 10:10:01;;;;;;;6.00;4.13;;;7.10;99.90;;;;;;5055816;28;20162;-67
2021/12/19 10:12:48;;;;;;;4.77;3.33;;;7.10;99.90;;;;;;5055661;28;20278;-68
2021/12/19 10:15:26;;;;;;;6.67;4.53;;;7.10;99.90;;;;;;5056005;28;20502;-68
2021/12/19 10:18:17;;;;;;;9.53;5.13;;;7.00;99.90;;;;;;5055712;28;20164;-69
2021/12/19 10:20:52;;;;;;;5.63;4.87;;;7.10;99.90;;;;;;5055872;28;20190;-70
2021/12/19 10:23:21;;;;;;;5.33;4.30;;;7.10;99.90;;;;;;5056026;28;20164;-69
2021/12/19 10:26:02;;;;;;;9.90;4.63;;;7.10;99.90;;;;;;5055292;28;20221;-69
2021/12/19 10:28:29;;;;;;;9.30;4.07;;;7.00;99.90;;;;;;5055360;28;20188;-68
2021/12/19 10:31:00;;;;;;;6.37;4.73;;;7.00;99.90;;;;;;5055276;28;20164;-66
2021/12/19 10:33:29;;;;;;;4.70;3.73;;;7.00;99.90;;;;;;5055501;28;20223;-69
2021/12/19 10:35:58;;;;;;;8.37;4.07;;;7.10;99.90;;;;;;5055867;28;20196;-68
2021/12/19 10:38:42;;;;;;;5.67;3.97;;;7.10;99.90;;;;;;5056051;28;20301;-68
2021/12/19 10:41:07;;;;;;;4.87;3.60;;;7.10;99.90;;;;;;5061195;28;20162;-68
2021/12/19 10:43:40;;;;;;;5.93;4.00;;;7.10;99.90;;;;;;5063983;28;20176;-67
2021/12/19 10:46:07;;;;;;;6.10;3.93;;;7.20;99.90;;;;;;5061771;28;20205;-69
2021/12/19 10:48:39;;;;;;;5.63;3.60;;;7.10;99.90;;;;;;5066355;28;20265;-68
2021/12/19 10:51:19;;;;;;;6.57;4.43;;;7.20;99.90;;;;;;5069390;28;20169;-66
2021/12/19 10:53:49;;;;;;;6.67;4.13;;;7.20;99.90;;;;;;5057710;28;20377;-66
2021/12/19 10:56:21;;;;;;;5.57;4.27;;;7.20;99.90;;;;;;5054193;28;20193;-66
2021/12/19 10:58:57;;;;;;;7.33;4.50;;;7.10;99.90;;;;;;5053908;28;20677;-67
2021/12/19 11:01:31;;;;;;;6.73;4.50;;;7.20;99.90;;;;;;5055010;28;20206;-68
2021/12/19 11:04:16;;;;;;;8.07;3.83;;;7.20;99.90;;;;;;5055085;28;20164;-68
2021/12/19 11:06:43;;;;;;;4.70;3.80;;;7.20;99.90;;;;;;5054803;28;20633;-67
2021/12/19 11:09:13;;;;;;;6.20;4.20;;;7.20;99.90;;;;;;5055476;28;20167;-66
2021/12/19 11:11:41;;;;;;;4.83;3.67;;;7.20;99.90;;;;;;5056019;28;20547;-68
2021/12/19 11:14:13;;;;;;;6.57;4.13;;;7.20;99.90;;;;;;5055135;28;20296;-66
2021/12/19 11:16:40;;;;;;;8.93;3.97;;;7.20;99.90;;;;;;5055880;28;20186;-68
2021/12/19 11:19:06;;;;;;;6.80;4.10;;;7.30;99.90;;;;;;5060273;28;20187;-69
2021/12/19 11:21:34;;;;;;;5.40;3.60;;;7.20;99.90;;;;;;5060903;28;20173;-67
2021/12/19 11:24:08;;;;;;;11.20;4.47;;;7.30;99.90;;;;;;5057642;28;20152;-67
2021/12/19 11:26:37;;;;;;;4.97;3.73;;;7.20;99.90;;;;;;5059276;28;20171;-68
2021/12/19 11:29:05;;;;;;;6.67;4.30;;;7.30;99.90;;;;;;5059563;28;20604;-67
2021/12/19 11:31:31;;;;;;;6.30;4.73;;;7.20;99.90;;;;;;5089744;28;20558;-67
2021/12/19 11:34:03;;;;;;;5.20;3.93;;;7.30;99.90;;;;;;5053641;28;20315;-70
2021/12/19 11:36:38;;;;;;;8.03;4.27;;;7.20;99.90;;;;;;5054273;28;20161;-68
2021/12/19 11:39:06;;;;;;;7.87;4.70;;;7.20;99.90;;;;;;5054637;28;20165;-67
2021/12/19 11:41:33;;;;;;;6.23;4.00;;;7.20;99.90;;;;;;5054103;28;20160;-68
2021/12/19 11:44:05;;;;;;;7.37;4.87;;;7.20;99.90;;;;;;5054353;28;20167;-67
2021/12/19 11:46:59;;;;;;;10.77;4.43;;;7.20;99.90;;;;;;5055024;28;20183;-68
2021/12/19 11:49:27;;;;;;;6.30;3.87;;;7.20;99.90;;;;;;5052983;28;20220;-67
2021/12/19 11:52:30;;;;;;;6.07;4.40;;;7.10;99.90;;;;;;5052964;28;20536;-66
2021/12/19 11:55:14;;;;;;;8.03;4.33;;;7.10;99.90;;;;;;5053847;28;20163;-66
2021/12/19 11:58:02;;;;;;;6.03;4.80;;;7.10;99.90;;;;;;5054505;28;20237;-67
2021/12/19 12:00:33;;;;;;;6.37;5.20;;;7.10;99.90;;;;;;5054671;28;20664;-67
2021/12/19 12:03:14;;;;;;;5.43;4.47;;;7.20;99.90;;;;;;5053742;28;20617;-65
2021/12/19 12:05:51;;;;;;;8.07;4.60;;;7.20;99.90;;;;;;5054044;28;20171;-68
2021/12/19 12:08:22;;;;;;;9.73;4.93;;;7.20;99.90;;;;;;5053513;28;20216;-67
2021/12/19 12:10:51;;;;;;;5.70;3.07;;;7.10;99.90;;;;;;5035648;28;20186;-69
2021/12/19 12:13:30;;;;;;;7.63;3.80;;;7.10;99.90;;;;;;5053740;28;20581;-69
2021/12/19 12:16:26;;;;;;;6.03;3.47;;;7.10;99.90;;;;;;5053461;28;20263;-65
2021/12/19 12:18:58;;;;;;;6.37;3.93;;;7.00;99.90;;;;;;5053993;28;20264;-68
2021/12/19 12:21:28;;;;;;;4.83;3.03;;;7.10;99.90;;;;;;5053973;28;20182;-65
2021/12/19 12:24:02;;;;;;;4.40;2.93;;;7.20;99.90;;;;;;5054358;28;20226;-66
2021/12/19 12:26:35;;;;;;;5.83;3.13;;;7.10;99.90;;;;;;5056824;28;20270;-67
2021/12/19 12:29:01;;;;;;;11.00;4.40;;;7.20;99.90;;;;;;5055951;28;20540;-67
2021/12/19 12:31:27;;;;;;;4.90;4.00;;;7.10;99.90;;;;;;5055895;28;20170;-67
2021/12/19 12:33:54;;;;;;;5.07;3.70;;;7.20;99.90;;;;;;5054481;28;20277;-67
2021/12/19 12:36:21;;;;;;;8.03;4.67;;;7.30;99.90;;;;;;5053137;28;20172;-67
2021/12/19 12:38:51;;;;;;;9.23;5.27;;;7.20;99.90;;;;;;5053669;28;20267;-66
2021/12/19 12:44:04;;;;;;;6.37;4.90;;;7.20;99.90;;;;;;5054012;28;20166;-66
2021/12/19 12:46:30;;;;;;;7.57;4.80;;;7.20;99.90;;;;;;5055920;28;20230;-66
2021/12/19 12:49:07;;;;;;;4.97;4.00;;;7.20;99.90;;;;;;5061938;28;20589;-67
2021/12/19 12:51:40;;;;;;;6.03;3.67;;;7.10;99.90;;;;;;5062043;28;20175;-68
2021/12/19 12:54:12;;;;;;;7.20;3.90;;;7.20;99.90;;;;;;5064089;28;20192;-68
2021/12/19 12:56:48;;;;;;;9.63;3.27;;;7.20;99.90;;;;;;5059615;28;20233;-67
2021/12/19 12:59:18;;;;;;;10.00;3.43;;;7.20;99.90;;;;;;5057633;28;20164;-67
2021/12/19 13:01:49;;;;;;;8.63;3.17;;;7.20;99.90;;;;;;5057107;28;20205;-68
2021/12/19 13:04:19;;;;;;;6.10;2.70;;;7.20;99.90;;;;;;5056803;28;20195;-67
2021/12/19 13:07:04;;;;;;;5.20;2.30;;;7.20;99.90;;;;;;5056951;28;20174;-66
2021/12/19 13:09:29;;;;;;;4.43;2.37;;;7.20;99.90;;;;;;5057074;28;20176;-66
2021/12/19 13:12:18;;;;;;;4.93;2.67;;;7.20;99.90;;;;;;5056301;28;20175;-65
2021/12/19 13:15:02;;;;;;;11.03;4.07;;;7.30;99.90;;;;;;5052469;28;20262;-66
2021/12/19 13:17:50;;;;;;;6.47;3.37;;;7.20;99.90;;;;;;5056444;28;20579;-66
2021/12/19 13:20:25;;;;;;;4.73;2.93;;;7.20;99.90;;;;;;5055438;28;20171;-67
2021/12/19 13:23:03;;;;;;;3.57;2.63;;;7.20;99.90;;;;;;5056020;28;20188;-67
2021/12/19 13:25:44;;;;;;;4.17;2.50;;;7.20;99.90;;;;;;5055745;28;20172;-66
2021/12/19 13:28:12;;;;;;;3.67;2.63;;;7.20;99.90;;;;;;5056171;28;20177;-66
2021/12/19 13:30:43;;;;;;;4.77;2.77;;;7.20;99.90;;;;;;5055842;28;20157;-68
2021/12/19 13:33:14;;;;;;;4.03;2.97;;;7.20;99.90;;;;;;5055784;28;20233;-68
2021/12/19 13:35:51;;;;;;;5.77;3.10;;;7.10;99.90;;;;;;5056261;28;20184;-67
2021/12/19 13:38:27;;;;;;;3.00;2.27;;;7.10;99.90;;;;;;5056263;28;20241;-65
2021/12/19 13:40:59;;;;;;;3.07;2.53;;;7.00;99.90;;;;;;5054924;28;20190;-67
2021/12/19 13:43:37;;;;;;;6.00;3.03;;;7.10;99.90;;;;;;5055924;28;20166;-67
2021/12/19 13:46:09;;;;;;;6.47;3.40;;;7.00;99.90;;;;;;5056439;28;20169;-68
2021/12/19 13:48:49;;;;;;;4.30;3.00;;;7.00;99.90;;;;;;5056047;28;20163;-67
2021/12/19 13:51:35;;;;;;;4.03;2.93;;;7.00;99.90;;;;;;5055584;28;20158;-68
2021/12/19 13:54:03;;;;;;;3.63;2.70;;;6.90;99.90;;;;;;5056065;28;20611;-69
2021/12/19 13:56:35;;;;;;;4.07;2.50;;;7.00;99.90;;;;;;5055682;28;20188;-68
2021/12/19 13:59:04;;;;;;;3.13;2.13;;;6.90;99.90;;;;;;5055678;28;20250;-66
2021/12/19 14:01:35;;;;;;;3.07;2.00;;;7.00;99.90;;;;;;5056103;28;20183;-67
2021/12/19 14:04:05;;;;;;;4.30;2.73;;;7.00;99.90;;;;;;5055622;28;20168;-67